Port Nolloth, South Africa
Current Conditions -  °F | °C
As of 1:00 AM on Sunday 26 Oct 2014 (Local Time) from FAUP Reporting Station
Clear Clear  
Wind Chill: 75°   Ceiling: Unl
Heat Index: 75°   Visibility: 6mi
Dew Point: 34°   Wind: 6mph
Humidity: 22%   Direction: 180°S
Pressure: 29.97"   Gusts: NA
Location:  29.24°S, 16.88°E
Report Text: FAUP 252300Z 18005KT CAVOK 24/01 Q1015 NOSIG
Loading
Personal Weather Stations






























Interactive Weather Map
Tropical Storm Tracking
New forecast layout! Learn more

10-Day Weather Forecast

Advertisements
Track Severe Weather on mobile